createdAt,value
2023-04-18T00:00:36.890Z,98351.56
2023-04-18T00:03:04.590Z,98352.28
2023-04-18T00:05:31.674Z,98351.31
2023-04-18T00:07:58.286Z,98355.53
2023-04-18T00:10:24.976Z,98346.19
2023-04-18T00:12:51.549Z,98347.81
2023-04-18T00:15:21.188Z,98344.56
2023-04-18T00:17:48.368Z,98344.56
2023-04-18T00:20:15.153Z,98346.41
2023-04-18T00:22:42.830Z,98350.84
2023-04-18T00:25:10.671Z,98348.38
2023-04-18T00:27:39.204Z,98341.56
2023-04-18T00:30:07.146Z,98340.59
2023-04-18T00:32:34.949Z,98338.09
2023-04-18T00:35:01.850Z,98331.50
2023-04-18T00:37:30.056Z,98341.94
2023-04-18T00:39:56.646Z,98337.72
2023-04-18T00:42:25.452Z,98347.94
2023-04-18T00:44:54.877Z,98345.22
2023-04-18T00:47:21.564Z,98338.00
2023-04-18T00:49:48.583Z,98339.66
2023-04-18T00:52:16.750Z,98328.31
2023-04-18T00:54:44.813Z,98341.22
2023-04-18T00:57:12.438Z,98339.78
2023-04-18T00:59:39.281Z,98327.81
2023-04-18T01:02:06.038Z,98335.66
2023-04-18T01:04:32.869Z,98333.00
2023-04-18T01:07:01.512Z,98327.78
2023-04-18T01:09:28.740Z,98341.50
2023-04-18T01:11:55.503Z,98332.34
2023-04-18T01:14:22.393Z,98332.34
2023-04-18T01:16:49.254Z,98336.63
2023-04-18T01:19:19.503Z,98335.66
2023-04-18T01:21:46.120Z,98340.13
2023-04-18T01:24:17.148Z,98345.09
2023-04-18T01:26:47.619Z,98343.31
2023-04-18T01:29:14.404Z,98343.16
2023-04-18T01:31:41.651Z,98333.88
2023-04-18T01:34:08.661Z,98339.97
2023-04-18T01:36:36.415Z,98339.22
2023-04-18T01:39:03.580Z,98331.59
2023-04-18T01:41:32.693Z,98344.47
2023-04-18T01:43:59.993Z,98334.13
2023-04-18T01:46:27.165Z,98343.69
2023-04-18T01:48:53.954Z,98336.69
2023-04-18T01:51:20.636Z,98326.34
2023-04-18T01:53:47.291Z,98328.00
2023-04-18T01:56:13.972Z,98326.34
2023-04-18T01:58:41.698Z,98331.47
2023-04-18T02:01:10.828Z,98331.53
2023-04-18T02:03:37.733Z,98333.13
2023-04-18T02:06:05.733Z,98328.06
2023-04-18T02:08:35.613Z,98323.97
2023-04-18T02:11:02.688Z,98329.09
2023-04-18T02:13:29.298Z,98327.66
2023-04-18T02:15:55.984Z,98334.31
2023-04-18T02:18:24.829Z,98324.88
2023-04-18T02:20:52.073Z,98331.91
2023-04-18T02:23:19.219Z,98330.28
2023-04-18T02:25:45.865Z,98334.38
2023-04-18T02:28:12.482Z,98332.84
2023-04-18T02:30:39.121Z,98331.97
2023-04-18T02:33:05.792Z,98336.25
2023-04-18T02:35:32.501Z,98340.63
2023-04-18T02:37:59.092Z,98343.13
2023-04-18T02:40:25.699Z,98344.94
2023-04-18T02:42:52.345Z,98345.94
2023-04-18T02:45:19.083Z,98347.78
2023-04-18T02:47:54.335Z,98357.19
2023-04-18T02:50:22.701Z,98347.72
2023-04-18T02:52:49.347Z,98354.69
2023-04-18T02:55:16.273Z,98352.97
2023-04-18T02:57:43.213Z,98359.69
2023-04-18T03:00:10.385Z,98362.31
2023-04-18T03:02:37.222Z,98356.16
2023-04-18T03:05:04.230Z,98362.09
2023-04-18T03:07:31.097Z,98362.16
2023-04-18T03:09:58.046Z,98366.72
2023-04-18T03:12:24.685Z,98368.44
2023-04-18T03:14:54.398Z,98375.34
2023-04-18T03:17:21.244Z,98368.56
2023-04-18T03:19:47.932Z,98368.69
2023-04-18T03:22:16.151Z,98369.53
2023-04-18T03:24:42.823Z,98367.13
2023-04-18T03:27:09.440Z,98355.19
2023-04-18T03:29:36.149Z,98363.75
2023-04-18T03:32:02.871Z,98350.50
2023-04-18T03:34:29.782Z,98361.72
2023-04-18T03:36:56.615Z,98354.88
2023-04-18T03:39:23.197Z,98353.03
2023-04-18T03:41:49.984Z,98354.72
2023-04-18T03:44:19.217Z,98360.03
2023-04-18T03:46:46.066Z,98358.22
2023-04-18T03:49:12.833Z,98352.25
2023-04-18T03:51:44.504Z,98363.50
2023-04-18T03:54:11.341Z,98354.84
2023-04-18T03:56:38.171Z,98362.72
2023-04-18T03:59:04.793Z,98365.31
2023-04-18T04:01:31.670Z,98368.63
2023-04-18T04:03:58.511Z,98377.25
2023-04-18T04:06:26.336Z,98375.56
2023-04-18T04:08:53.503Z,98367.81
2023-04-18T04:11:20.159Z,98374.47
2023-04-18T04:13:46.729Z,98372.69
2023-04-18T04:16:13.521Z,98370.94
2023-04-18T04:18:40.300Z,98378.09
2023-04-18T04:21:06.895Z,98380.50
2023-04-18T04:23:34.345Z,98387.38
2023-04-18T04:26:04.703Z,98388.22
2023-04-18T04:28:31.692Z,98391.00
2023-04-18T04:30:58.410Z,98391.00
2023-04-18T04:33:28.771Z,98401.47
2023-04-18T04:35:55.792Z,98397.06
2023-04-18T04:38:25.161Z,98401.22
2023-04-18T04:40:53.000Z,98410.69
2023-04-18T04:43:20.570Z,98390.75
2023-04-18T04:45:51.764Z,98402.19
2023-04-18T04:48:20.014Z,98397.13
2023-04-18T04:50:55.139Z,98392.66
2023-04-18T04:53:22.483Z,98395.31
2023-04-18T04:55:49.435Z,98396.78
2023-04-18T04:58:16.334Z,98401.84
2023-04-18T05:00:43.058Z,98398.28
2023-04-18T05:03:10.784Z,98397.16
2023-04-18T05:05:37.799Z,98396.22
2023-04-18T05:08:04.652Z,98401.41
2023-04-18T05:10:31.300Z,98396.84
2023-04-18T05:12:57.992Z,98411.22
2023-04-18T05:15:25.115Z,98404.13
2023-04-18T05:17:54.740Z,98398.91
2023-04-18T05:20:21.523Z,98410.81
2023-04-18T05:22:48.162Z,98410.69
2023-04-18T05:25:14.858Z,98408.88
2023-04-18T05:27:41.860Z,98424.50
2023-04-18T05:30:08.912Z,98411.84
2023-04-18T05:32:35.681Z,98416.66
2023-04-18T05:35:02.409Z,98410.69
2023-04-18T05:37:29.074Z,98421.97
2023-04-18T05:39:55.803Z,98414.88
2023-04-18T05:42:22.467Z,98411.47
2023-04-18T05:44:49.084Z,98417.63
2023-04-18T05:47:16.899Z,98415.31
2023-04-18T05:49:43.944Z,98418.38
2023-04-18T05:52:11.476Z,98429.81
2023-04-18T05:54:38.127Z,98411.03
2023-04-18T05:57:04.985Z,98420.22
2023-04-18T05:59:31.646Z,98431.16
2023-04-18T06:01:58.208Z,98437.06
2023-04-18T06:04:25.035Z,98429.09
2023-04-18T06:06:51.966Z,98429.66
2023-04-18T06:09:18.596Z,98441.16
2023-04-18T06:11:45.484Z,98418.41
2023-04-18T06:14:15.224Z,98435.16
2023-04-18T06:16:42.251Z,98432.72
2023-04-18T06:19:08.884Z,98429.59
2023-04-18T06:21:35.603Z,98443.22
2023-04-18T06:24:02.437Z,98441.41
2023-04-18T06:26:30.219Z,98444.19
2023-04-18T06:28:58.406Z,98449.13
2023-04-18T06:31:25.136Z,98440.44
2023-04-18T06:33:51.798Z,98458.19
2023-04-18T06:36:18.711Z,98450.59
2023-04-18T06:38:49.956Z,98458.19
2023-04-18T06:41:16.592Z,98459.78
2023-04-18T06:43:55.714Z,98467.09
2023-04-18T06:46:29.474Z,98471.09
2023-04-18T06:48:56.258Z,98465.16
2023-04-18T06:51:22.867Z,98466.69
2023-04-18T06:53:52.794Z,98468.38
2023-04-18T06:56:20.819Z,98480.97
2023-04-18T06:58:48.232Z,98468.13
2023-04-18T07:01:14.888Z,98467.94
2023-04-18T07:03:41.647Z,98491.16
2023-04-18T07:06:10.590Z,98469.00
2023-04-18T07:08:37.819Z,98476.03
2023-04-18T07:11:07.433Z,98486.72
2023-04-18T07:13:34.065Z,98473.53
2023-04-18T07:16:01.693Z,98478.28
2023-04-18T07:18:37.425Z,98474.34
2023-04-18T07:21:07.702Z,98474.94
2023-04-18T07:23:39.229Z,98483.88
2023-04-18T07:26:06.645Z,98500.94
2023-04-18T07:28:33.379Z,98481.84
2023-04-18T07:31:03.804Z,98485.34
2023-04-18T07:33:33.965Z,98497.47
2023-04-18T07:36:06.107Z,98494.03
2023-04-18T07:38:34.855Z,98488.47
2023-04-18T07:41:03.010Z,98487.72
2023-04-18T07:43:29.934Z,98492.09
2023-04-18T07:45:56.810Z,98487.63
2023-04-18T07:48:23.485Z,98498.00
2023-04-18T07:50:50.124Z,98494.38
2023-04-18T07:53:17.121Z,98486.94
2023-04-18T07:55:43.756Z,98490.00
2023-04-18T07:58:10.556Z,98497.41
2023-04-18T08:00:39.331Z,98502.91
2023-04-18T08:03:07.812Z,98500.16
2023-04-18T08:05:34.806Z,98500.84
2023-04-18T08:08:01.681Z,98510.25
2023-04-18T08:10:28.630Z,98495.41
2023-04-18T08:12:55.243Z,98506.59
2023-04-18T08:15:21.838Z,98503.06
2023-04-18T08:17:49.229Z,98509.84
2023-04-18T08:20:15.978Z,98503.97
2023-04-18T08:22:57.706Z,98504.97
2023-04-18T08:25:29.715Z,98491.47
2023-04-18T08:27:56.310Z,98492.63
2023-04-18T08:30:22.964Z,98497.69
2023-04-18T08:32:49.958Z,98501.19
2023-04-18T08:35:16.756Z,98493.84
2023-04-18T08:37:43.552Z,98500.41
2023-04-18T08:40:10.410Z,98512.31
2023-04-18T08:42:46.020Z,98506.94
2023-04-18T08:45:16.406Z,98505.34
2023-04-18T08:47:43.159Z,98514.69
2023-04-18T08:50:10.619Z,98513.13
2023-04-18T08:52:39.861Z,98512.69
2023-04-18T08:55:07.421Z,98512.53
2023-04-18T08:57:37.198Z,98508.31
2023-04-18T09:00:10.441Z,98515.97
2023-04-18T09:02:45.255Z,98513.81
2023-04-18T09:05:18.886Z,98506.53
2023-04-18T09:07:46.819Z,98509.81
2023-04-18T09:10:13.964Z,98503.47
2023-04-18T09:12:50.656Z,98507.47
2023-04-18T09:15:20.916Z,98508.88
2023-04-18T09:17:51.019Z,98508.97
2023-04-18T09:20:41.167Z,98509.75
2023-04-18T09:23:10.797Z,98520.16
2023-04-18T09:25:45.078Z,98509.75
2023-04-18T09:28:27.076Z,98515.19
2023-04-18T09:30:54.642Z,98507.72
2023-04-18T09:33:34.791Z,98509.19
2023-04-18T09:36:28.515Z,98512.19
2023-04-18T09:38:56.703Z,98512.88
2023-04-18T09:41:24.389Z,98529.19
2023-04-18T09:44:11.654Z,98509.06
2023-04-18T09:46:40.161Z,98508.75
2023-04-18T09:49:08.472Z,98512.38
2023-04-18T09:51:38.387Z,98513.56
2023-04-18T09:54:05.924Z,98508.69
2023-04-18T09:56:34.614Z,98514.69
2023-04-18T09:59:10.167Z,98513.06
2023-04-18T10:01:37.881Z,98517.28
2023-04-18T10:04:09.181Z,98524.84
2023-04-18T10:06:42.446Z,98513.66
2023-04-18T10:09:09.963Z,98504.22
2023-04-18T10:11:36.934Z,98510.88
2023-04-18T10:14:09.869Z,98513.16
2023-04-18T10:16:37.625Z,98504.63
2023-04-18T10:19:30.788Z,98509.50
2023-04-18T10:22:01.987Z,98512.88
2023-04-18T10:24:49.968Z,98504.28
2023-04-18T10:27:17.838Z,98490.13
2023-04-18T10:29:52.419Z,98500.06
2023-04-18T10:32:22.724Z,98505.72
2023-04-18T10:34:50.504Z,98498.88
2023-04-18T10:37:19.084Z,98508.31
2023-04-18T10:39:57.097Z,98511.50
2023-04-18T10:42:48.373Z,98511.78
2023-04-18T10:45:25.146Z,98509.31
2023-04-18T10:48:30.839Z,98509.84
2023-04-18T10:51:16.574Z,98498.09
2023-04-18T10:53:56.566Z,98495.31
2023-04-18T10:56:23.704Z,98491.75
2023-04-18T10:58:51.790Z,98496.63
2023-04-18T11:01:31.705Z,98494.94
2023-04-18T11:04:01.810Z,98484.00
2023-04-18T11:06:29.094Z,98489.91
2023-04-18T11:09:12.286Z,98475.91
2023-04-18T11:11:38.988Z,98482.28
2023-04-18T11:14:05.693Z,98478.19
2023-04-18T11:16:42.487Z,98479.75
2023-04-18T11:19:21.385Z,98478.94
2023-04-18T11:21:48.187Z,98481.75
2023-04-18T11:24:24.442Z,98490.16
2023-04-18T11:26:56.379Z,98481.75
2023-04-18T11:29:23.209Z,98494.97
2023-04-18T11:31:55.850Z,98493.75
2023-04-18T11:34:30.508Z,98477.13
2023-04-18T11:36:57.956Z,98490.38
2023-04-18T11:39:24.629Z,98488.91
2023-04-18T11:41:51.464Z,98486.47
2023-04-18T11:44:23.058Z,98495.06
2023-04-18T11:46:53.124Z,98486.84
2023-04-18T11:49:30.406Z,98494.94
2023-04-18T11:51:57.554Z,98493.44
2023-04-18T11:54:39.131Z,98491.97
2023-04-18T11:57:06.687Z,98481.13
2023-04-18T11:59:33.463Z,98509.50
2023-04-18T12:02:15.302Z,98477.22
2023-04-18T12:05:00.381Z,98483.78
2023-04-18T12:07:32.228Z,98472.19
2023-04-18T12:09:59.114Z,98471.75
2023-04-18T12:12:29.114Z,98481.19
2023-04-18T12:15:07.344Z,98475.66
2023-04-18T12:17:36.210Z,98483.25
2023-04-18T12:20:04.902Z,98479.41
2023-04-18T12:22:40.127Z,98479.22
2023-04-18T12:25:27.104Z,98479.22
2023-04-18T12:28:15.173Z,98473.53
2023-04-18T12:30:42.431Z,98472.25
2023-04-18T12:33:11.611Z,98480.81
2023-04-18T12:35:38.270Z,98475.13
2023-04-18T12:38:05.990Z,98486.16
2023-04-18T12:40:32.629Z,98475.69
2023-04-18T12:43:00.545Z,98469.41
2023-04-18T12:45:28.160Z,98479.88
2023-04-18T12:47:54.866Z,98470.75
2023-04-18T12:50:26.149Z,98467.38
2023-04-18T12:52:57.011Z,98476.81
2023-04-18T12:55:26.555Z,98471.84
2023-04-18T12:57:58.180Z,98472.34
2023-04-18T13:00:32.841Z,98476.63
2023-04-18T13:03:00.040Z,98479.22
2023-04-18T13:05:31.623Z,98471.66
2023-04-18T13:08:15.287Z,98492.59
2023-04-18T13:10:43.465Z,98485.22
2023-04-18T13:13:10.101Z,98484.38
2023-04-18T13:15:36.687Z,98481.00
2023-04-18T13:18:06.356Z,98484.63
2023-04-18T13:20:33.995Z,98473.72
2023-04-18T13:23:02.688Z,98480.91
2023-04-18T13:25:29.601Z,98472.22
2023-04-18T13:27:58.506Z,98464.38
2023-04-18T13:30:25.408Z,98471.00
2023-04-18T13:32:52.333Z,98471.00
2023-04-18T13:35:19.132Z,98474.56
2023-04-18T13:37:46.320Z,98468.28
2023-04-18T13:40:13.614Z,98468.75
2023-04-18T13:42:40.483Z,98458.03
2023-04-18T13:45:07.751Z,98468.38
2023-04-18T13:47:35.066Z,98468.19
2023-04-18T13:50:01.853Z,98460.84
2023-04-18T13:52:28.631Z,98460.84
2023-04-18T13:54:55.473Z,98476.34
2023-04-18T13:57:23.164Z,98459.72
2023-04-18T13:59:52.644Z,98468.13
2023-04-18T14:02:19.480Z,98465.31
2023-04-18T14:04:46.596Z,98467.28
2023-04-18T14:07:14.730Z,98471.94
2023-04-18T14:09:41.405Z,98470.81
2023-04-18T14:12:10.687Z,98480.06
2023-04-18T14:14:37.345Z,98470.53
2023-04-18T14:17:03.977Z,98456.06
2023-04-18T14:19:32.105Z,98471.28
2023-04-18T14:21:59.197Z,98461.59
2023-04-18T14:24:26.291Z,98461.88
2023-04-18T14:26:55.582Z,98458.97
2023-04-18T14:29:22.215Z,98465.13
2023-04-18T14:31:49.062Z,98462.13
2023-04-18T14:34:15.804Z,98468.59
2023-04-18T14:36:42.368Z,98455.63
2023-04-18T14:39:09.167Z,98472.97
2023-04-18T14:41:35.902Z,98471.94
2023-04-18T14:44:04.138Z,98469.31
2023-04-18T14:46:31.233Z,98469.41
2023-04-18T14:48:58.274Z,98462.91
2023-04-18T14:51:24.882Z,98468.28
2023-04-18T14:53:51.833Z,98473.38
2023-04-18T14:56:21.160Z,98465.31
2023-04-18T14:58:50.838Z,98470.19
2023-04-18T15:01:17.655Z,98456.44
2023-04-18T15:03:48.047Z,98453.19
2023-04-18T15:06:14.737Z,98460.06
2023-04-18T15:08:44.173Z,98458.31
2023-04-18T15:11:11.316Z,98450.09
2023-04-18T15:13:37.980Z,98453.66
2023-04-18T15:16:04.960Z,98451.97
2023-04-18T15:18:31.529Z,98451.78
2023-04-18T15:21:00.065Z,98440.66
2023-04-18T15:23:27.662Z,98442.72
2023-04-18T15:25:54.351Z,98449.63
2023-04-18T15:28:21.030Z,98432.25
2023-04-18T15:30:50.641Z,98442.91
2023-04-18T15:33:19.186Z,98453.56
2023-04-18T15:35:46.981Z,98464.34
2023-04-18T15:38:14.014Z,98459.41
2023-04-18T15:40:40.924Z,98465.56
2023-04-18T15:43:07.607Z,98467.53
2023-04-18T15:45:34.249Z,98465.84
2023-04-18T15:48:00.998Z,98467.13
2023-04-18T15:50:27.774Z,98479.97
2023-04-18T15:52:54.540Z,98491.09
2023-04-18T15:55:21.303Z,98477.28
2023-04-18T15:57:47.884Z,98483.53
2023-04-18T16:00:17.686Z,98480.44
2023-04-18T16:02:45.137Z,98491.94
2023-04-18T16:05:12.946Z,98498.19
2023-04-18T16:07:40.383Z,98488.94
2023-04-18T16:10:11.252Z,98499.06
2023-04-18T16:12:39.497Z,98498.88
2023-04-18T16:15:08.722Z,98493.84
2023-04-18T16:17:36.967Z,98488.81
2023-04-18T16:20:04.475Z,98487.53
2023-04-18T16:22:33.723Z,98494.72
2023-04-18T16:25:03.265Z,98488.91
2023-04-18T16:27:30.021Z,98486.13
2023-04-18T16:29:56.812Z,98496.97
2023-04-18T16:32:23.512Z,98488.31
2023-04-18T16:34:50.215Z,98503.03
2023-04-18T16:37:16.907Z,98499.34
2023-04-18T16:39:43.593Z,98492.59
2023-04-18T16:42:14.872Z,98520.69
2023-04-18T16:44:42.224Z,98503.13
2023-04-18T16:47:08.959Z,98497.13
2023-04-18T16:49:38.683Z,98512.63
2023-04-18T16:52:08.357Z,98504.75
2023-04-18T16:54:35.391Z,98505.50
2023-04-18T16:57:02.879Z,98507.91
2023-04-18T16:59:29.461Z,98516.88
2023-04-18T17:01:56.264Z,98515.19
2023-04-18T17:04:23.561Z,98521.16
2023-04-18T17:06:52.099Z,98518.78
2023-04-18T17:09:19.852Z,98531.91
2023-04-18T17:11:46.585Z,98537.19
2023-04-18T17:14:13.574Z,98531.38
2023-04-18T17:16:42.303Z,98541.28
2023-04-18T17:19:10.233Z,98536.91
2023-04-18T17:21:37.704Z,98542.88
2023-04-18T17:24:06.792Z,98542.41
2023-04-18T17:26:34.789Z,98546.31
2023-04-18T17:29:03.255Z,98544.66
2023-04-18T17:31:32.973Z,98540.53
2023-04-18T17:34:00.160Z,98552.25
2023-04-18T17:36:29.853Z,98560.78
2023-04-18T17:38:56.494Z,98557.53
2023-04-18T17:41:23.370Z,98551.16
2023-04-18T17:43:53.489Z,98554.72
2023-04-18T17:46:20.149Z,98551.50
2023-04-18T17:48:47.140Z,98554.97
2023-04-18T17:51:16.326Z,98563.69
2023-04-18T17:53:43.047Z,98558.78
2023-04-18T17:56:10.204Z,98571.16
2023-04-18T17:58:36.837Z,98576.59
2023-04-18T18:01:03.564Z,98571.47
2023-04-18T18:03:30.398Z,98568.50
2023-04-18T18:05:57.148Z,98577.34
2023-04-18T18:08:24.332Z,98575.66
2023-04-18T18:10:50.982Z,98583.81
2023-04-18T18:13:17.550Z,98583.81
2023-04-18T18:15:46.862Z,98598.59
2023-04-18T18:18:13.554Z,98595.00
2023-04-18T18:20:43.344Z,98590.00
2023-04-18T18:23:09.991Z,98594.38
2023-04-18T18:25:37.848Z,98585.78
2023-04-18T18:28:04.714Z,98597.25
2023-04-18T18:30:31.543Z,98594.91
2023-04-18T18:32:58.385Z,98592.38
2023-04-18T18:35:25.014Z,98590.75
2023-04-18T18:37:51.660Z,98586.66
2023-04-18T18:40:18.461Z,98592.88
2023-04-18T18:42:45.165Z,98597.28
2023-04-18T18:45:11.942Z,98597.13
2023-04-18T18:47:40.079Z,98611.97
2023-04-18T18:50:07.768Z,98611.25
2023-04-18T18:52:34.509Z,98610.66
2023-04-18T18:55:01.616Z,98614.84
2023-04-18T18:57:28.360Z,98611.06
2023-04-18T18:59:55.943Z,98615.69
2023-04-18T19:02:23.043Z,98614.84
2023-04-18T19:04:49.901Z,98619.13
2023-04-18T19:07:16.612Z,98618.38
2023-04-18T19:09:43.298Z,98606.25
2023-04-18T19:12:10.076Z,98624.38
2023-04-18T19:14:36.694Z,98622.63
2023-04-18T19:17:03.510Z,98626.84
2023-04-18T19:19:30.175Z,98634.66
2023-04-18T19:21:57.893Z,98629.66
2023-04-18T19:24:24.567Z,98638.09
2023-04-18T19:26:51.624Z,98621.72
2023-04-18T19:29:18.266Z,98625.25
2023-04-18T19:31:45.025Z,98632.25
2023-04-18T19:34:12.118Z,98630.00
2023-04-18T19:36:38.767Z,98637.31
2023-04-18T19:39:05.714Z,98637.59
2023-04-18T19:41:32.289Z,98640.97
2023-04-18T19:43:58.961Z,98640.13
2023-04-18T19:46:26.318Z,98633.03
2023-04-18T19:48:52.949Z,98643.44
2023-04-18T19:51:20.909Z,98642.44
2023-04-18T19:53:47.576Z,98645.19
2023-04-18T19:56:15.032Z,98643.44
2023-04-18T19:58:46.745Z,98645.31
2023-04-18T20:01:14.696Z,98651.25
2023-04-18T20:03:45.031Z,98655.78
2023-04-18T20:06:11.899Z,98652.16
2023-04-18T20:08:44.586Z,98648.78
2023-04-18T20:11:12.458Z,98655.66
2023-04-18T20:13:39.121Z,98649.50
2023-04-18T20:16:07.445Z,98648.56
2023-04-18T20:18:35.941Z,98645.91
2023-04-18T20:21:03.819Z,98644.47
2023-04-18T20:23:30.538Z,98646.09
2023-04-18T20:25:57.182Z,98649.94
2023-04-18T20:28:26.696Z,98648.94
2023-04-18T20:30:53.487Z,98642.94
2023-04-18T20:33:20.134Z,98646.41
2023-04-18T20:35:49.149Z,98648.94
2023-04-18T20:38:15.767Z,98646.63
2023-04-18T20:40:45.172Z,98643.31
2023-04-18T20:43:17.514Z,98657.16
2023-04-18T20:45:44.341Z,98652.97
2023-04-18T20:48:10.907Z,98643.56
2023-04-18T20:50:40.203Z,98652.44
2023-04-18T20:53:06.816Z,98656.56
2023-04-18T20:55:33.411Z,98653.31
2023-04-18T20:58:00.081Z,98655.78
2023-04-18T21:00:26.851Z,98649.13
2023-04-18T21:02:53.557Z,98639.72
2023-04-18T21:05:20.213Z,98639.84
2023-04-18T21:07:46.800Z,98640.81
2023-04-18T21:10:13.426Z,98640.69
2023-04-18T21:12:40.067Z,98637.31
2023-04-18T21:15:07.254Z,98633.94
2023-04-18T21:17:33.908Z,98638.34
2023-04-18T21:20:00.685Z,98628.97
2023-04-18T21:22:27.344Z,98628.34
2023-04-18T21:24:56.507Z,98621.38
2023-04-18T21:27:23.110Z,98624.03
2023-04-18T21:29:49.691Z,98619.63
2023-04-18T21:32:16.331Z,98617.03
2023-04-18T21:34:42.999Z,98613.66
2023-04-18T21:37:09.619Z,98612.84
2023-04-18T21:39:38.182Z,98615.38
2023-04-18T21:42:04.821Z,98607.78
2023-04-18T21:44:31.480Z,98616.38
2023-04-18T21:46:58.096Z,98617.94
2023-04-18T21:49:24.819Z,98611.13
2023-04-18T21:51:51.499Z,98613.84
2023-04-18T21:54:18.108Z,98613.00
2023-04-18T21:56:44.805Z,98614.78
2023-04-18T21:59:11.465Z,98613.13
2023-04-18T22:01:38.516Z,98615.72
2023-04-18T22:04:06.146Z,98620.06
2023-04-18T22:06:33.423Z,98614.91
2023-04-18T22:09:01.057Z,98622.69
2023-04-18T22:11:28.617Z,98621.75
2023-04-18T22:13:55.263Z,98622.59
2023-04-18T22:16:22.248Z,98613.06
2023-04-18T22:18:51.788Z,98622.34
2023-04-18T22:21:18.507Z,98621.31
2023-04-18T22:23:45.152Z,98619.50
2023-04-18T22:26:11.854Z,98622.09
2023-04-18T22:28:38.545Z,98620.34
2023-04-18T22:31:05.445Z,98622.88
2023-04-18T22:33:32.097Z,98625.34
2023-04-18T22:35:58.799Z,98618.22
2023-04-18T22:38:25.840Z,98618.22
2023-04-18T22:40:52.468Z,98606.91
2023-04-18T22:43:23.776Z,98610.41
2023-04-18T22:45:51.058Z,98620.81
2023-04-18T22:48:18.002Z,98608.59
2023-04-18T22:50:44.581Z,98604.31
2023-04-18T22:53:11.361Z,98606.16
2023-04-18T22:55:42.048Z,98606.84
2023-04-18T22:58:12.001Z,98603.34
2023-04-18T23:00:38.847Z,98612.81
2023-04-18T23:03:05.628Z,98611.06
2023-04-18T23:05:32.813Z,98604.94
2023-04-18T23:08:00.609Z,98595.47
2023-04-18T23:10:27.444Z,98598.94
2023-04-18T23:12:54.081Z,98599.44
2023-04-18T23:15:22.909Z,98597.69
2023-04-18T23:17:52.842Z,98589.19
2023-04-18T23:20:20.387Z,98588.41
2023-04-18T23:22:50.058Z,98589.19
2023-04-18T23:25:16.776Z,98584.06
2023-04-18T23:27:43.583Z,98582.28
2023-04-18T23:30:10.627Z,98581.47
2023-04-18T23:32:37.301Z,98576.38
2023-04-18T23:35:06.038Z,98573.47
2023-04-18T23:37:32.862Z,98570.66
2023-04-18T23:40:02.841Z,98571.66
2023-04-18T23:42:29.484Z,98569.13
2023-04-18T23:44:57.803Z,98561.34
2023-04-18T23:47:24.492Z,98555.47
2023-04-18T23:49:51.131Z,98551.94
2023-04-18T23:52:17.732Z,98543.50
2023-04-18T23:54:45.352Z,98537.44
2023-04-18T23:57:11.915Z,98541.94
2023-04-18T23:59:38.521Z,98541.94
